Messwerte Ashland

Temperatur

Temperatur
°C
1574290800 17.00 17.00 4
1574294400 18.00 18.00 4
1574298000 19.00 19.00 4
1574301600 20.00 20.00 4
1574305200 21.00 21.00 4
1574308800 22.00 22.00 3
1574312400 23.00 23.00 3
1574316000 0.00 0.00 3
1574319600 1.00 1.00 3
1574323200 2.00 2.00 3
1574326800 3.00 3.00 3
1574330400 4.00 4.00 2
1574334000 5.00 5.00
1574337600 6.00 6.00 1
1574341200 7.00 7.00 0
1574344800 8.00 8.00
1574348400 9.00 9.00 0
1574352000 10.00 10.00 0
1574355600 11.00 11.00 -1
1574359200 12.00 12.00 -1
1574362800 13.00 13.00 -1
1574366400 14.00 14.00 -1
1574370000 15.00 15.00 -1
1574373600 16.00 16.00 -2

Aktuellste Messwerte

Wettercharakter
Wetter: bedeckt
Temperatur
-3 °C
Feuchtigkeit
80 %
Wind
30 km/hWindrichtung: Nordwest
Böen
40 km/h
Luftdruck
1015 hPa
Messzeit: 21. November 2019, 17.00Datenquelle: METAR

Weitere Messstationen in der Nähe

Messstation Temperatur Entfernung
Ironwood -4 °C 60 km
Hayward -3 °C 70 km
Two Harbors -7 °C 84 km
Silver Bay -7 °C 87 km
Duluth -4 °C 88 km
Superior -5 °C 91 km
Duluth -7 °C 101 km

Wind

Windrichtung Böen Mittelwind
° km/h km/h
1574290800 17.00 16.00 - 17.00 90° 10
1574294400 18.00 17.00 - 18.00 100° 10
1574298000 19.00 18.00 - 19.00 80° 10
1574301600 20.00 19.00 - 20.00 70° 15
1574305200 21.00 20.00 - 21.00 50° 10
1574308800 22.00 21.00 - 22.00 20° 15
1574312400 23.00 22.00 - 23.00 40° 15
1574316000 0.00 23.00 - 0.00 60° 10
1574319600 1.00 0.00 - 1.00 80° 10
1574323200 2.00 1.00 - 2.00 60° 5
1574326800 3.00 2.00 - 3.00 40° 5
1574330400 4.00 3.00 - 4.00 350° 5
1574334000 5.00 4.00 - 5.00
1574337600 6.00 5.00 - 6.00 360° 20
1574341200 7.00 6.00 - 7.00 10° 20
1574344800 8.00 7.00 - 8.00
1574348400 9.00 8.00 - 9.00 350° 20
1574352000 10.00 9.00 - 10.00 350° 35 25
1574355600 11.00 10.00 - 11.00 340° 35 25
1574359200 12.00 11.00 - 12.00 340° 45 20
1574362800 13.00 12.00 - 13.00 340° 20
1574366400 14.00 13.00 - 14.00 310° 15
1574370000 15.00 14.00 - 15.00 310° 35 25
1574373600 16.00 15.00 - 16.00 320° 45 25

Ihre Wetterstation

Fehlt Ihre Wetterstation auf unserem Portal?

Schreiben Sie an network@meteonews.ch

Klima

Wann ist es am wärmsten? Wann regnet es am wenigsten? Unsere Klimadaten geben Auskunft.